sensor_id;sensor_type;location;lat;lon;timestamp;temperature;humidity
13521;DHT22;6832;51.186;3.236;2022-11-20T00:01:41;8.50;89.40
13521;DHT22;6832;51.186;3.236;2022-11-20T00:04:13;8.50;89.10
13521;DHT22;6832;51.186;3.236;2022-11-20T00:06:44;8.50;89.20
13521;DHT22;6832;51.186;3.236;2022-11-20T00:09:14;8.50;89.10
13521;DHT22;6832;51.186;3.236;2022-11-20T00:11:44;8.50;89.30
13521;DHT22;6832;51.186;3.236;2022-11-20T00:14:18;8.50;89.50
13521;DHT22;6832;51.186;3.236;2022-11-20T00:16:46;8.50;89.40
13521;DHT22;6832;51.186;3.236;2022-11-20T00:19:16;8.50;89.60
13521;DHT22;6832;51.186;3.236;2022-11-20T00:21:46;8.50;89.60
13521;DHT22;6832;51.186;3.236;2022-11-20T00:24:17;8.50;89.60
13521;DHT22;6832;51.186;3.236;2022-11-20T00:26:47;8.50;89.60
13521;DHT22;6832;51.186;3.236;2022-11-20T00:29:15;8.50;89.50
13521;DHT22;6832;51.186;3.236;2022-11-20T00:31:56;8.50;89.70
13521;DHT22;6832;51.186;3.236;2022-11-20T00:34:26;8.50;89.80
13521;DHT22;6832;51.186;3.236;2022-11-20T00:36:56;8.50;90.10
13521;DHT22;6832;51.186;3.236;2022-11-20T00:39:27;8.50;90.20
13521;DHT22;6832;51.186;3.236;2022-11-20T00:42:01;8.50;90.20
13521;DHT22;6832;51.186;3.236;2022-11-20T00:44:29;8.50;90.20
13521;DHT22;6832;51.186;3.236;2022-11-20T00:46:56;8.50;90.20
13521;DHT22;6832;51.186;3.236;2022-11-20T00:49:27;8.50;90.50
13521;DHT22;6832;51.186;3.236;2022-11-20T00:51:58;8.50;90.30
13521;DHT22;6832;51.186;3.236;2022-11-20T00:54:33;8.50;90.10
13521;DHT22;6832;51.186;3.236;2022-11-20T00:57:06;8.60;90.10
13521;DHT22;6832;51.186;3.236;2022-11-20T00:59:34;8.50;89.90
13521;DHT22;6832;51.186;3.236;2022-11-20T01:02:01;8.60;89.80
13521;DHT22;6832;51.186;3.236;2022-11-20T01:04:31;8.60;90.00
13521;DHT22;6832;51.186;3.236;2022-11-20T01:07:02;8.50;89.80
13521;DHT22;6832;51.186;3.236;2022-11-20T01:09:29;8.50;89.70
13521;DHT22;6832;51.186;3.236;2022-11-20T01:11:57;8.50;89.70
13521;DHT22;6832;51.186;3.236;2022-11-20T01:14:27;8.50;90.00
13521;DHT22;6832;51.186;3.236;2022-11-20T01:16:55;8.50;90.00
13521;DHT22;6832;51.186;3.236;2022-11-20T01:19:25;8.50;90.00
13521;DHT22;6832;51.186;3.236;2022-11-20T01:21:56;8.50;90.10
13521;DHT22;6832;51.186;3.236;2022-11-20T01:24:30;8.50;89.90
13521;DHT22;6832;51.186;3.236;2022-11-20T01:27:07;8.50;90.00
13521;DHT22;6832;51.186;3.236;2022-11-20T01:29:38;8.50;90.10
13521;DHT22;6832;51.186;3.236;2022-11-20T01:32:09;8.50;90.10
13521;DHT22;6832;51.186;3.236;2022-11-20T01:34:39;8.50;90.20
13521;DHT22;6832;51.186;3.236;2022-11-20T01:37:13;8.50;90.20
13521;DHT22;6832;51.186;3.236;2022-11-20T01:39:43;8.50;90.30
13521;DHT22;6832;51.186;3.236;2022-11-20T01:42:13;8.50;90.50
13521;DHT22;6832;51.186;3.236;2022-11-20T01:47:47;8.50;90.50
13521;DHT22;6832;51.186;3.236;2022-11-20T01:50:22;8.50;90.40
13521;DHT22;6832;51.186;3.236;2022-11-20T01:52:55;8.50;90.20
13521;DHT22;6832;51.186;3.236;2022-11-20T01:55:26;8.50;90.20
13521;DHT22;6832;51.186;3.236;2022-11-20T01:57:56;8.50;90.30
13521;DHT22;6832;51.186;3.236;2022-11-20T02:00:32;8.50;90.40
13521;DHT22;6832;51.186;3.236;2022-11-20T02:03:03;8.50;90.30
13521;DHT22;6832;51.186;3.236;2022-11-20T02:05:35;8.50;90.40
13521;DHT22;6832;51.186;3.236;2022-11-20T02:08:07;8.50;90.30
13521;DHT22;6832;51.186;3.236;2022-11-20T02:10:36;8.50;90.20
13521;DHT22;6832;51.186;3.236;2022-11-20T02:13:06;8.50;90.20
13521;DHT22;6832;51.186;3.236;2022-11-20T02:15:56;8.50;90.20
13521;DHT22;6832;51.186;3.236;2022-11-20T02:18:26;8.50;90.20
13521;DHT22;6832;51.186;3.236;2022-11-20T02:20:55;8.40;89.90
13521;DHT22;6832;51.186;3.236;2022-11-20T02:23:34;8.50;90.00
13521;DHT22;6832;51.186;3.236;2022-11-20T02:26:11;8.50;90.00
13521;DHT22;6832;51.186;3.236;2022-11-20T02:28:41;8.40;90.00
13521;DHT22;6832;51.186;3.236;2022-11-20T02:31:08;8.50;90.00
13521;DHT22;6832;51.186;3.236;2022-11-20T02:33:36;8.40;90.00
13521;DHT22;6832;51.186;3.236;2022-11-20T02:36:08;8.40;90.00
13521;DHT22;6832;51.186;3.236;2022-11-20T02:38:38;8.40;90.20
13521;DHT22;6832;51.186;3.236;2022-11-20T02:41:08;8.40;90.20
13521;DHT22;6832;51.186;3.236;2022-11-20T02:43:38;8.40;90.20
13521;DHT22;6832;51.186;3.236;2022-11-20T02:46:14;8.40;90.20
13521;DHT22;6832;51.186;3.236;2022-11-20T02:48:46;8.40;90.20
13521;DHT22;6832;51.186;3.236;2022-11-20T02:51:13;8.40;90.20
13521;DHT22;6832;51.186;3.236;2022-11-20T02:53:42;8.40;90.30
13521;DHT22;6832;51.186;3.236;2022-11-20T02:56:11;8.30;90.30
13521;DHT22;6832;51.186;3.236;2022-11-20T02:58:43;8.30;90.40
13521;DHT22;6832;51.186;3.236;2022-11-20T03:01:17;8.30;90.60
13521;DHT22;6832;51.186;3.236;2022-11-20T03:03:50;8.40;90.90
13521;DHT22;6832;51.186;3.236;2022-11-20T03:06:22;8.30;91.00
13521;DHT22;6832;51.186;3.236;2022-11-20T03:08:53;8.40;91.00
13521;DHT22;6832;51.186;3.236;2022-11-20T03:11:27;8.40;91.20
13521;DHT22;6832;51.186;3.236;2022-11-20T03:13:55;8.40;91.20
13521;DHT22;6832;51.186;3.236;2022-11-20T03:16:28;8.40;91.20
13521;DHT22;6832;51.186;3.236;2022-11-20T03:19:01;8.40;91.40
13521;DHT22;6832;51.186;3.236;2022-11-20T03:21:29;8.40;91.40
13521;DHT22;6832;51.186;3.236;2022-11-20T03:24:00;8.50;91.40
13521;DHT22;6832;51.186;3.236;2022-11-20T03:26:36;8.50;91.40
13521;DHT22;6832;51.186;3.236;2022-11-20T03:29:04;8.50;91.50
13521;DHT22;6832;51.186;3.236;2022-11-20T03:31:34;8.50;91.50
13521;DHT22;6832;51.186;3.236;2022-11-20T03:34:05;8.50;91.50
13521;DHT22;6832;51.186;3.236;2022-11-20T03:36:40;8.50;91.30
13521;DHT22;6832;51.186;3.236;2022-11-20T03:39:09;8.50;91.30
13521;DHT22;6832;51.186;3.236;2022-11-20T03:41:40;8.50;91.30
13521;DHT22;6832;51.186;3.236;2022-11-20T03:44:10;8.60;91.40
13521;DHT22;6832;51.186;3.236;2022-11-20T03:46:40;8.60;91.30
13521;DHT22;6832;51.186;3.236;2022-11-20T03:49:09;8.60;91.30
13521;DHT22;6832;51.186;3.236;2022-11-20T03:51:38;8.50;91.20
13521;DHT22;6832;51.186;3.236;2022-11-20T03:54:07;8.50;91.20
13521;DHT22;6832;51.186;3.236;2022-11-20T03:57:08;8.50;91.20
13521;DHT22;6832;51.186;3.236;2022-11-20T03:59:39;8.60;91.10
13521;DHT22;6832;51.186;3.236;2022-11-20T04:02:09;8.60;91.10
13521;DHT22;6832;51.186;3.236;2022-11-20T04:04:37;8.60;91.10
13521;DHT22;6832;51.186;3.236;2022-11-20T04:07:04;8.50;91.10
13521;DHT22;6832;51.186;3.236;2022-11-20T04:09:34;8.50;91.10
13521;DHT22;6832;51.186;3.236;2022-11-20T04:12:01;8.50;91.20
13521;DHT22;6832;51.186;3.236;2022-11-20T04:14:31;8.50;91.30
13521;DHT22;6832;51.186;3.236;2022-11-20T04:17:05;8.50;91.40
13521;DHT22;6832;51.186;3.236;2022-11-20T04:19:38;8.50;91.50
13521;DHT22;6832;51.186;3.236;2022-11-20T04:22:14;8.50;91.50
13521;DHT22;6832;51.186;3.236;2022-11-20T04:24:51;8.50;91.60
13521;DHT22;6832;51.186;3.236;2022-11-20T04:27:21;8.50;91.70
13521;DHT22;6832;51.186;3.236;2022-11-20T04:29:51;8.50;91.70
13521;DHT22;6832;51.186;3.236;2022-11-20T04:32:22;8.50;91.60
13521;DHT22;6832;51.186;3.236;2022-11-20T04:34:52;8.50;91.50
13521;DHT22;6832;51.186;3.236;2022-11-20T04:37:19;8.50;91.50
13521;DHT22;6832;51.186;3.236;2022-11-20T04:39:46;8.50;91.40
13521;DHT22;6832;51.186;3.236;2022-11-20T04:42:16;8.50;91.80
13521;DHT22;6832;51.186;3.236;2022-11-20T04:44:57;8.50;91.60
13521;DHT22;6832;51.186;3.236;2022-11-20T04:47:25;8.50;91.60
13521;DHT22;6832;51.186;3.236;2022-11-20T04:49:53;8.50;91.60
13521;DHT22;6832;51.186;3.236;2022-11-20T04:52:23;8.50;91.70
13521;DHT22;6832;51.186;3.236;2022-11-20T04:54:53;8.50;91.80
13521;DHT22;6832;51.186;3.236;2022-11-20T04:57:21;8.50;91.80
13521;DHT22;6832;51.186;3.236;2022-11-20T04:59:49;8.50;91.70
13521;DHT22;6832;51.186;3.236;2022-11-20T05:02:20;8.50;91.70
13521;DHT22;6832;51.186;3.236;2022-11-20T05:04:48;8.50;91.60
13521;DHT22;6832;51.186;3.236;2022-11-20T05:07:18;8.50;91.50
13521;DHT22;6832;51.186;3.236;2022-11-20T05:09:45;8.50;91.40
13521;DHT22;6832;51.186;3.236;2022-11-20T05:12:16;8.50;91.30
13521;DHT22;6832;51.186;3.236;2022-11-20T05:14:43;8.50;91.50
13521;DHT22;6832;51.186;3.236;2022-11-20T05:17:11;8.40;91.50
13521;DHT22;6832;51.186;3.236;2022-11-20T05:19:41;8.40;91.70
13521;DHT22;6832;51.186;3.236;2022-11-20T05:22:10;8.40;91.90
13521;DHT22;6832;51.186;3.236;2022-11-20T05:24:38;8.40;92.00
13521;DHT22;6832;51.186;3.236;2022-11-20T05:27:05;8.30;92.00
13521;DHT22;6832;51.186;3.236;2022-11-20T05:29:32;8.40;92.00
13521;DHT22;6832;51.186;3.236;2022-11-20T05:32:03;8.40;92.00
13521;DHT22;6832;51.186;3.236;2022-11-20T05:34:37;8.40;92.10
13521;DHT22;6832;51.186;3.236;2022-11-20T05:37:10;8.30;92.20
13521;DHT22;6832;51.186;3.236;2022-11-20T05:39:46;8.30;92.10
13521;DHT22;6832;51.186;3.236;2022-11-20T05:42:16;8.30;92.30
13521;DHT22;6832;51.186;3.236;2022-11-20T05:45:00;8.40;92.50
13521;DHT22;6832;51.186;3.236;2022-11-20T05:47:31;8.30;92.50
13521;DHT22;6832;51.186;3.236;2022-11-20T05:50:03;8.30;92.50
13521;DHT22;6832;51.186;3.236;2022-11-20T05:52:33;8.30;92.60
13521;DHT22;6832;51.186;3.236;2022-11-20T05:55:03;8.40;92.60
13521;DHT22;6832;51.186;3.236;2022-11-20T05:57:33;8.30;92.80
13521;DHT22;6832;51.186;3.236;2022-11-20T06:00:02;8.30;92.70
13521;DHT22;6832;51.186;3.236;2022-11-20T06:02:34;8.40;92.90
13521;DHT22;6832;51.186;3.236;2022-11-20T06:05:08;8.30;93.00
13521;DHT22;6832;51.186;3.236;2022-11-20T06:07:40;8.40;93.00
13521;DHT22;6832;51.186;3.236;2022-11-20T06:10:10;8.40;93.10
13521;DHT22;6832;51.186;3.236;2022-11-20T06:12:40;8.40;92.90
13521;DHT22;6832;51.186;3.236;2022-11-20T06:15:08;8.40;93.00
13521;DHT22;6832;51.186;3.236;2022-11-20T06:17:41;8.40;93.20
13521;DHT22;6832;51.186;3.236;2022-11-20T06:20:11;8.40;93.30
13521;DHT22;6832;51.186;3.236;2022-11-20T06:22:41;8.40;93.20
13521;DHT22;6832;51.186;3.236;2022-11-20T06:25:08;8.40;93.30
13521;DHT22;6832;51.186;3.236;2022-11-20T06:27:37;8.50;93.30
13521;DHT22;6832;51.186;3.236;2022-11-20T06:30:07;8.50;93.30
13521;DHT22;6832;51.186;3.236;2022-11-20T06:32:35;8.50;93.50
13521;DHT22;6832;51.186;3.236;2022-11-20T06:35:04;8.50;93.30
13521;DHT22;6832;51.186;3.236;2022-11-20T06:37:36;8.50;93.40
13521;DHT22;6832;51.186;3.236;2022-11-20T06:40:07;8.50;93.60
13521;DHT22;6832;51.186;3.236;2022-11-20T06:42:41;8.50;93.70
13521;DHT22;6832;51.186;3.236;2022-11-20T06:45:12;8.60;93.80
13521;DHT22;6832;51.186;3.236;2022-11-20T06:47:43;8.60;93.70
13521;DHT22;6832;51.186;3.236;2022-11-20T06:50:19;8.60;93.70
13521;DHT22;6832;51.186;3.236;2022-11-20T06:52:49;8.60;94.00
13521;DHT22;6832;51.186;3.236;2022-11-20T06:55:22;8.60;93.80
13521;DHT22;6832;51.186;3.236;2022-11-20T06:58:03;8.60;93.90
13521;DHT22;6832;51.186;3.236;2022-11-20T07:00:30;8.70;94.00
13521;DHT22;6832;51.186;3.236;2022-11-20T07:03:03;8.70;93.80
13521;DHT22;6832;51.186;3.236;2022-11-20T07:05:31;8.70;94.00
13521;DHT22;6832;51.186;3.236;2022-11-20T07:08:00;8.70;93.90
13521;DHT22;6832;51.186;3.236;2022-11-20T07:10:29;8.80;93.90
13521;DHT22;6832;51.186;3.236;2022-11-20T07:12:56;8.70;93.90
13521;DHT22;6832;51.186;3.236;2022-11-20T07:15:27;8.80;94.00
13521;DHT22;6832;51.186;3.236;2022-11-20T07:17:58;8.70;94.00
13521;DHT22;6832;51.186;3.236;2022-11-20T07:20:27;8.80;94.20
13521;DHT22;6832;51.186;3.236;2022-11-20T07:23:00;8.80;94.20
13521;DHT22;6832;51.186;3.236;2022-11-20T07:25:29;8.80;94.30
13521;DHT22;6832;51.186;3.236;2022-11-20T07:27:57;8.80;94.30
13521;DHT22;6832;51.186;3.236;2022-11-20T07:30:25;8.90;94.40
13521;DHT22;6832;51.186;3.236;2022-11-20T07:32:54;8.90;94.40
13521;DHT22;6832;51.186;3.236;2022-11-20T07:35:23;8.90;94.50
13521;DHT22;6832;51.186;3.236;2022-11-20T07:37:51;9.00;94.50
13521;DHT22;6832;51.186;3.236;2022-11-20T07:40:20;9.00;94.40
13521;DHT22;6832;51.186;3.236;2022-11-20T07:42:54;9.00;94.50
13521;DHT22;6832;51.186;3.236;2022-11-20T07:45:23;9.10;94.60
13521;DHT22;6832;51.186;3.236;2022-11-20T07:47:51;9.10;94.40
13521;DHT22;6832;51.186;3.236;2022-11-20T07:50:21;9.10;94.40
13521;DHT22;6832;51.186;3.236;2022-11-20T07:52:49;9.10;94.50
13521;DHT22;6832;51.186;3.236;2022-11-20T07:55:18;9.20;94.40
13521;DHT22;6832;51.186;3.236;2022-11-20T07:57:55;9.20;94.30
13521;DHT22;6832;51.186;3.236;2022-11-20T08:00:23;9.20;94.50
13521;DHT22;6832;51.186;3.236;2022-11-20T08:02:54;9.20;94.30
13521;DHT22;6832;51.186;3.236;2022-11-20T08:05:24;9.20;94.30
13521;DHT22;6832;51.186;3.236;2022-11-20T08:07:51;9.20;94.20
13521;DHT22;6832;51.186;3.236;2022-11-20T08:10:26;9.30;94.20
13521;DHT22;6832;51.186;3.236;2022-11-20T08:13:00;9.30;94.50
13521;DHT22;6832;51.186;3.236;2022-11-20T08:15:48;9.20;94.50
13521;DHT22;6832;51.186;3.236;2022-11-20T08:18:16;9.30;94.60
13521;DHT22;6832;51.186;3.236;2022-11-20T08:20:46;9.30;94.50
13521;DHT22;6832;51.186;3.236;2022-11-20T08:23:14;9.30;94.60
13521;DHT22;6832;51.186;3.236;2022-11-20T08:25:49;9.40;94.70
13521;DHT22;6832;51.186;3.236;2022-11-20T08:28:20;9.40;94.80
13521;DHT22;6832;51.186;3.236;2022-11-20T08:30:48;9.40;94.60
13521;DHT22;6832;51.186;3.236;2022-11-20T08:33:23;9.40;94.50
13521;DHT22;6832;51.186;3.236;2022-11-20T08:36:05;9.40;94.50
13521;DHT22;6832;51.186;3.236;2022-11-20T08:38:49;9.40;94.40
13521;DHT22;6832;51.186;3.236;2022-11-20T08:41:22;9.40;94.40
13521;DHT22;6832;51.186;3.236;2022-11-20T08:44:10;9.50;94.50
13521;DHT22;6832;51.186;3.236;2022-11-20T08:46:45;9.50;94.60
13521;DHT22;6832;51.186;3.236;2022-11-20T08:49:23;9.50;94.30
13521;DHT22;6832;51.186;3.236;2022-11-20T08:51:53;9.50;94.60
13521;DHT22;6832;51.186;3.236;2022-11-20T08:54:21;9.50;94.60
13521;DHT22;6832;51.186;3.236;2022-11-20T08:56:52;9.50;94.60
13521;DHT22;6832;51.186;3.236;2022-11-20T08:59:29;9.50;94.70
13521;DHT22;6832;51.186;3.236;2022-11-20T09:01:59;9.60;94.80
13521;DHT22;6832;51.186;3.236;2022-11-20T09:04:34;9.60;94.80
13521;DHT22;6832;51.186;3.236;2022-11-20T09:07:01;9.60;94.90
13521;DHT22;6832;51.186;3.236;2022-11-20T09:09:31;9.70;94.80
13521;DHT22;6832;51.186;3.236;2022-11-20T09:11:59;9.70;94.80
13521;DHT22;6832;51.186;3.236;2022-11-20T09:14:34;9.70;94.70
13521;DHT22;6832;51.186;3.236;2022-11-20T09:17:01;9.70;94.80
13521;DHT22;6832;51.186;3.236;2022-11-20T09:19:29;9.70;94.70
13521;DHT22;6832;51.186;3.236;2022-11-20T09:21:56;9.70;94.60
13521;DHT22;6832;51.186;3.236;2022-11-20T09:24:24;9.80;94.70
13521;DHT22;6832;51.186;3.236;2022-11-20T09:26:54;9.80;94.80
13521;DHT22;6832;51.186;3.236;2022-11-20T09:29:22;9.80;95.00
13521;DHT22;6832;51.186;3.236;2022-11-20T09:31:51;9.90;95.10
13521;DHT22;6832;51.186;3.236;2022-11-20T09:34:18;9.90;95.10
13521;DHT22;6832;51.186;3.236;2022-11-20T09:36:45;9.90;95.10
13521;DHT22;6832;51.186;3.236;2022-11-20T09:39:13;10.00;94.60
13521;DHT22;6832;51.186;3.236;2022-11-20T09:41:57;10.00;94.60
13521;DHT22;6832;51.186;3.236;2022-11-20T09:44:40;10.00;94.70
13521;DHT22;6832;51.186;3.236;2022-11-20T09:47:24;10.10;94.70
13521;DHT22;6832;51.186;3.236;2022-11-20T09:50:05;10.10;94.70
13521;DHT22;6832;51.186;3.236;2022-11-20T09:52:41;10.20;94.80
13521;DHT22;6832;51.186;3.236;2022-11-20T09:55:13;10.20;94.80
13521;DHT22;6832;51.186;3.236;2022-11-20T09:57:46;10.30;94.80
13521;DHT22;6832;51.186;3.236;2022-11-20T10:00:16;10.30;94.70
13521;DHT22;6832;51.186;3.236;2022-11-20T10:02:49;10.30;94.60
13521;DHT22;6832;51.186;3.236;2022-11-20T10:05:24;10.40;94.60
13521;DHT22;6832;51.186;3.236;2022-11-20T10:08:01;10.40;94.50
13521;DHT22;6832;51.186;3.236;2022-11-20T10:10:41;10.50;94.60
13521;DHT22;6832;51.186;3.236;2022-11-20T10:13:24;10.50;94.60
13521;DHT22;6832;51.186;3.236;2022-11-20T10:16:03;10.60;94.50
13521;DHT22;6832;51.186;3.236;2022-11-20T10:18:48;10.60;94.50
13521;DHT22;6832;51.186;3.236;2022-11-20T10:21:28;10.60;94.50
13521;DHT22;6832;51.186;3.236;2022-11-20T10:24:25;10.70;94.40
13521;DHT22;6832;51.186;3.236;2022-11-20T10:27:06;10.70;94.60
13521;DHT22;6832;51.186;3.236;2022-11-20T10:29:42;10.80;94.50
13521;DHT22;6832;51.186;3.236;2022-11-20T10:32:16;10.90;94.60
13521;DHT22;6832;51.186;3.236;2022-11-20T10:34:50;10.90;94.60
13521;DHT22;6832;51.186;3.236;2022-11-20T10:37:24;11.00;94.70
13521;DHT22;6832;51.186;3.236;2022-11-20T10:39:59;11.00;94.60
13521;DHT22;6832;51.186;3.236;2022-11-20T10:42:37;11.10;94.50
13521;DHT22;6832;51.186;3.236;2022-11-20T10:45:15;11.20;94.50
13521;DHT22;6832;51.186;3.236;2022-11-20T10:47:48;11.30;94.30
13521;DHT22;6832;51.186;3.236;2022-11-20T10:50:21;11.30;94.10
13521;DHT22;6832;51.186;3.236;2022-11-20T10:52:58;11.40;93.70
13521;DHT22;6832;51.186;3.236;2022-11-20T10:55:37;11.40;93.50
13521;DHT22;6832;51.186;3.236;2022-11-20T10:58:11;11.50;93.10
13521;DHT22;6832;51.186;3.236;2022-11-20T11:00:47;11.50;93.10
13521;DHT22;6832;51.186;3.236;2022-11-20T11:03:23;11.50;92.90
13521;DHT22;6832;51.186;3.236;2022-11-20T11:05:59;11.60;92.60
13521;DHT22;6832;51.186;3.236;2022-11-20T11:08:34;11.60;92.60
13521;DHT22;6832;51.186;3.236;2022-11-20T11:11:12;11.60;92.60
13521;DHT22;6832;51.186;3.236;2022-11-20T11:13:41;11.70;92.80
13521;DHT22;6832;51.186;3.236;2022-11-20T11:16:20;11.70;92.70
13521;DHT22;6832;51.186;3.236;2022-11-20T11:18:49;11.70;92.60
13521;DHT22;6832;51.186;3.236;2022-11-20T11:21:25;11.70;92.50
13521;DHT22;6832;51.186;3.236;2022-11-20T11:24:00;11.70;92.50
13521;DHT22;6832;51.186;3.236;2022-11-20T11:26:30;11.80;93.00
13521;DHT22;6832;51.186;3.236;2022-11-20T11:28:59;11.70;92.50
13521;DHT22;6832;51.186;3.236;2022-11-20T11:31:31;11.80;92.50
13521;DHT22;6832;51.186;3.236;2022-11-20T11:34:13;11.70;92.40
13521;DHT22;6832;51.186;3.236;2022-11-20T11:37:00;11.70;92.40
13521;DHT22;6832;51.186;3.236;2022-11-20T11:39:33;11.70;92.50
13521;DHT22;6832;51.186;3.236;2022-11-20T11:42:12;11.60;92.50
13521;DHT22;6832;51.186;3.236;2022-11-20T11:44:51;11.70;92.60
13521;DHT22;6832;51.186;3.236;2022-11-20T11:47:45;11.60;92.60
13521;DHT22;6832;51.186;3.236;2022-11-20T11:50:17;11.60;92.60
13521;DHT22;6832;51.186;3.236;2022-11-20T11:52:54;11.60;92.60
13521;DHT22;6832;51.186;3.236;2022-11-20T11:55:29;11.60;92.70
13521;DHT22;6832;51.186;3.236;2022-11-20T11:58:11;11.60;92.60
13521;DHT22;6832;51.186;3.236;2022-11-20T12:00:51;11.50;92.60
13521;DHT22;6832;51.186;3.236;2022-11-20T12:03:25;11.50;92.70
13521;DHT22;6832;51.186;3.236;2022-11-20T12:06:03;11.50;92.70
13521;DHT22;6832;51.186;3.236;2022-11-20T12:08:46;11.40;92.80
13521;DHT22;6832;51.186;3.236;2022-11-20T12:11:20;11.40;92.90
13521;DHT22;6832;51.186;3.236;2022-11-20T12:13:53;11.40;93.10
13521;DHT22;6832;51.186;3.236;2022-11-20T12:16:33;11.30;93.10
13521;DHT22;6832;51.186;3.236;2022-11-20T12:19:04;11.30;93.30
13521;DHT22;6832;51.186;3.236;2022-11-20T12:21:43;11.30;93.40
13521;DHT22;6832;51.186;3.236;2022-11-20T12:24:44;11.30;93.60
13521;DHT22;6832;51.186;3.236;2022-11-20T12:27:39;11.20;93.50
13521;DHT22;6832;51.186;3.236;2022-11-20T12:30:22;11.30;93.70
13521;DHT22;6832;51.186;3.236;2022-11-20T12:33:24;11.30;93.50
13521;DHT22;6832;51.186;3.236;2022-11-20T12:36:07;11.20;93.70
13521;DHT22;6832;51.186;3.236;2022-11-20T12:39:03;11.20;93.70
13521;DHT22;6832;51.186;3.236;2022-11-20T12:41:46;11.20;93.80
13521;DHT22;6832;51.186;3.236;2022-11-20T12:44:52;11.20;93.90
13521;DHT22;6832;51.186;3.236;2022-11-20T12:50:38;11.20;94.10
13521;DHT22;6832;51.186;3.236;2022-11-20T12:53:15;11.20;94.00
13521;DHT22;6832;51.186;3.236;2022-11-20T12:55:50;11.20;94.10
13521;DHT22;6832;51.186;3.236;2022-11-20T12:58:25;11.20;94.10
13521;DHT22;6832;51.186;3.236;2022-11-20T13:00:58;11.20;94.20
13521;DHT22;6832;51.186;3.236;2022-11-20T13:03:47;11.20;94.20
13521;DHT22;6832;51.186;3.236;2022-11-20T13:06:18;11.20;94.50
13521;DHT22;6832;51.186;3.236;2022-11-20T13:08:50;11.20;94.40
13521;DHT22;6832;51.186;3.236;2022-11-20T13:11:26;11.20;94.50
13521;DHT22;6832;51.186;3.236;2022-11-20T13:14:26;11.30;94.70
13521;DHT22;6832;51.186;3.236;2022-11-20T13:17:00;11.30;94.80
13521;DHT22;6832;51.186;3.236;2022-11-20T13:19:30;11.30;94.60
13521;DHT22;6832;51.186;3.236;2022-11-20T13:21:57;11.30;94.70
13521;DHT22;6832;51.186;3.236;2022-11-20T13:24:27;11.30;94.70
13521;DHT22;6832;51.186;3.236;2022-11-20T13:27:04;11.40;94.90
13521;DHT22;6832;51.186;3.236;2022-11-20T13:29:37;11.40;94.80
13521;DHT22;6832;51.186;3.236;2022-11-20T13:32:13;11.40;94.70
13521;DHT22;6832;51.186;3.236;2022-11-20T13:34:51;11.50;94.80
13521;DHT22;6832;51.186;3.236;2022-11-20T13:37:26;11.40;95.00
13521;DHT22;6832;51.186;3.236;2022-11-20T13:40:10;11.50;95.10
13521;DHT22;6832;51.186;3.236;2022-11-20T13:42:43;11.50;95.20
13521;DHT22;6832;51.186;3.236;2022-11-20T13:45:25;11.50;95.20
13521;DHT22;6832;51.186;3.236;2022-11-20T13:47:54;11.60;95.30
13521;DHT22;6832;51.186;3.236;2022-11-20T13:50:38;11.50;95.20
13521;DHT22;6832;51.186;3.236;2022-11-20T13:53:15;11.60;95.40
13521;DHT22;6832;51.186;3.236;2022-11-20T13:55:54;11.60;95.40
13521;DHT22;6832;51.186;3.236;2022-11-20T13:58:43;11.70;95.60
13521;DHT22;6832;51.186;3.236;2022-11-20T14:01:22;11.70;95.70
13521;DHT22;6832;51.186;3.236;2022-11-20T14:03:53;11.70;95.70
13521;DHT22;6832;51.186;3.236;2022-11-20T14:06:26;11.70;96.00
13521;DHT22;6832;51.186;3.236;2022-11-20T14:08:54;11.80;96.00
13521;DHT22;6832;51.186;3.236;2022-11-20T14:11:24;11.80;96.00
13521;DHT22;6832;51.186;3.236;2022-11-20T14:13:54;11.90;96.20
13521;DHT22;6832;51.186;3.236;2022-11-20T14:16:26;11.90;96.30
13521;DHT22;6832;51.186;3.236;2022-11-20T14:18:56;12.00;96.30
13521;DHT22;6832;51.186;3.236;2022-11-20T14:21:34;12.10;96.30
13521;DHT22;6832;51.186;3.236;2022-11-20T14:24:06;12.10;96.30
13521;DHT22;6832;51.186;3.236;2022-11-20T14:26:34;12.20;96.10
13521;DHT22;6832;51.186;3.236;2022-11-20T14:29:03;12.30;95.70
13521;DHT22;6832;51.186;3.236;2022-11-20T14:31:33;12.40;95.50
13521;DHT22;6832;51.186;3.236;2022-11-20T14:34:15;12.40;95.10
13521;DHT22;6832;51.186;3.236;2022-11-20T14:36:44;12.50;94.80
13521;DHT22;6832;51.186;3.236;2022-11-20T14:39:12;12.50;94.50
13521;DHT22;6832;51.186;3.236;2022-11-20T14:41:50;12.60;94.10
13521;DHT22;6832;51.186;3.236;2022-11-20T14:44:20;12.60;93.60
13521;DHT22;6832;51.186;3.236;2022-11-20T14:46:51;12.70;93.30
13521;DHT22;6832;51.186;3.236;2022-11-20T14:49:20;12.70;93.20
13521;DHT22;6832;51.186;3.236;2022-11-20T14:51:58;12.80;93.20
13521;DHT22;6832;51.186;3.236;2022-11-20T14:54:27;12.80;92.60
13521;DHT22;6832;51.186;3.236;2022-11-20T14:56:57;12.80;92.10
13521;DHT22;6832;51.186;3.236;2022-11-20T14:59:26;12.80;92.30
13521;DHT22;6832;51.186;3.236;2022-11-20T15:02:00;12.90;92.30
13521;DHT22;6832;51.186;3.236;2022-11-20T15:04:28;12.90;91.70
13521;DHT22;6832;51.186;3.236;2022-11-20T15:06:58;12.90;91.80
13521;DHT22;6832;51.186;3.236;2022-11-20T15:09:26;12.90;91.60
13521;DHT22;6832;51.186;3.236;2022-11-20T15:11:56;12.90;91.40
13521;DHT22;6832;51.186;3.236;2022-11-20T15:14:25;12.90;91.30
13521;DHT22;6832;51.186;3.236;2022-11-20T15:16:54;12.90;90.30
13521;DHT22;6832;51.186;3.236;2022-11-20T15:19:24;13.00;90.40
13521;DHT22;6832;51.186;3.236;2022-11-20T15:21:52;12.90;90.30
13521;DHT22;6832;51.186;3.236;2022-11-20T15:24:20;12.90;90.60
13521;DHT22;6832;51.186;3.236;2022-11-20T15:26:50;12.90;90.20
13521;DHT22;6832;51.186;3.236;2022-11-20T15:29:23;12.90;90.10
13521;DHT22;6832;51.186;3.236;2022-11-20T15:31:51;12.90;90.20
13521;DHT22;6832;51.186;3.236;2022-11-20T15:34:19;12.90;90.30
13521;DHT22;6832;51.186;3.236;2022-11-20T15:36:48;12.90;90.30
13521;DHT22;6832;51.186;3.236;2022-11-20T15:39:15;12.90;90.30
13521;DHT22;6832;51.186;3.236;2022-11-20T15:41:43;12.90;90.50
13521;DHT22;6832;51.186;3.236;2022-11-20T15:44:10;12.90;90.90
13521;DHT22;6832;51.186;3.236;2022-11-20T15:46:41;12.90;91.10
13521;DHT22;6832;51.186;3.236;2022-11-20T15:49:13;12.90;91.20
13521;DHT22;6832;51.186;3.236;2022-11-20T15:51:50;12.90;91.40
13521;DHT22;6832;51.186;3.236;2022-11-20T15:54:21;12.90;91.40
13521;DHT22;6832;51.186;3.236;2022-11-20T15:56:49;13.00;91.00
13521;DHT22;6832;51.186;3.236;2022-11-20T15:59:18;13.00;91.20
13521;DHT22;6832;51.186;3.236;2022-11-20T16:01:46;13.00;90.90
13521;DHT22;6832;51.186;3.236;2022-11-20T16:04:16;12.90;90.60
13521;DHT22;6832;51.186;3.236;2022-11-20T16:06:44;12.90;90.80
13521;DHT22;6832;51.186;3.236;2022-11-20T16:09:14;12.90;90.90
13521;DHT22;6832;51.186;3.236;2022-11-20T16:11:41;12.90;90.80
13521;DHT22;6832;51.186;3.236;2022-11-20T16:14:10;12.90;90.70
13521;DHT22;6832;51.186;3.236;2022-11-20T16:16:59;12.90;90.20
13521;DHT22;6832;51.186;3.236;2022-11-20T16:19:28;12.90;89.40
13521;DHT22;6832;51.186;3.236;2022-11-20T16:21:58;12.90;89.70
13521;DHT22;6832;51.186;3.236;2022-11-20T16:24:30;12.90;89.50
13521;DHT22;6832;51.186;3.236;2022-11-20T16:27:04;12.90;90.00
13521;DHT22;6832;51.186;3.236;2022-11-20T16:29:35;12.80;89.20
13521;DHT22;6832;51.186;3.236;2022-11-20T16:32:08;12.80;90.00
13521;DHT22;6832;51.186;3.236;2022-11-20T16:34:38;12.80;89.60
13521;DHT22;6832;51.186;3.236;2022-11-20T16:37:08;12.80;90.20